Tivoli, New York
Current Conditions -  °F | °C
As of 2:53 PM on Thursday 18 Dec 2014 (Local Time) from KPOU Reporting Station
Overcast Overcast  
Wind Chill: 35°   Ceiling: 4000
Heat Index: 41°   Visibility: 10mi
Dew Point: 26°   Wind: 10mph
Humidity: 55%   Direction: 250°WSW
Pressure: 29.91"   Gusts: NA
Location:  42.06°N, 73.91°W
Report Text: KPOU 181953Z 25009KT 10SM OVC040 05/M03 A2991 RMK AO2 SLP125 T00501033
Loading
Personal Weather Stations






























Interactive Weather Map New forecast layout! Learn more

10-Day Weather Forecast

Advertisements
Track Severe Weather on mobile